Time;durP1;ratioP1;P1;durP2;ratioP2;P2;SDS_P1;SDS_P2;PMS_P1;PMS_P2;Temp;Humidity;BMP_temperature;BMP_pressure;BME280_temperature;BME280_humidity;BME280_pressure;Samples;Min_cycle;Max_cycle;Signal;HPM_P1;HPM_P2
2021/08/16 00:01:00;;;;;;;8.82;5.60;;;;;;;23.44;63.60;96737.47;4978159;28;20049;-77
2021/08/16 00:03:26;;;;;;;5.90;4.80;;;;;;;23.44;63.70;96729.50;5027593;28;20484;-77
2021/08/16 00:05:51;;;;;;;6.00;4.82;;;;;;;23.49;63.98;96734.56;4994538;28;20419;-77
2021/08/16 00:08:16;;;;;;;6.18;5.00;;;;;;;23.55;63.66;96731.31;4994480;28;20109;-77
2021/08/16 00:10:42;;;;;;;7.65;5.88;;;;;;;23.57;63.37;96723.03;5010150;28;20562;-77
2021/08/16 00:13:08;;;;;;;9.57;5.72;;;;;;;23.59;63.54;96720.03;4993775;28;20048;-77
2021/08/16 00:15:33;;;;;;;8.65;5.35;;;;;;;23.59;63.69;96712.81;4994084;28;20116;-77
2021/08/16 00:17:59;;;;;;;7.57;5.10;;;;;;;23.54;63.42;96721.81;5010539;28;20043;-77
2021/08/16 00:20:27;;;;;;;6.82;5.65;;;;;;;23.50;63.51;96718.28;4993456;28;20029;-77
2021/08/16 00:22:53;;;;;;;10.95;6.82;;;;;;;23.48;63.44;96712.53;5027080;28;20281;-77
2021/08/16 00:25:18;;;;;;;6.05;5.45;;;;;;;23.50;63.35;96712.22;4995624;28;20030;-77
2021/08/16 00:27:47;;;;;;;6.63;5.28;;;;;;;23.36;63.64;96721.34;4981802;28;20098;-77
2021/08/16 00:30:12;;;;;;;6.43;5.82;;;;;;;23.31;64.57;96713.63;5046875;28;20033;-77
2021/08/16 00:32:38;;;;;;;6.55;5.70;;;;;;;23.40;64.15;96710.03;5017205;28;20040;-77
2021/08/16 00:35:04;;;;;;;7.53;5.78;;;;;;;23.45;63.71;96718.53;5033872;28;20498;-77
2021/08/16 00:37:29;;;;;;;8.38;6.00;;;;;;;23.38;64.23;96718.34;5033695;28;20029;-77
2021/08/16 00:39:54;;;;;;;6.90;5.85;;;;;;;23.38;64.98;96721.78;5017097;28;20040;-77
2021/08/16 00:42:20;;;;;;;9.48;6.47;;;;;;;23.34;65.29;96725.47;5033449;28;20025;-77
2021/08/16 00:44:45;;;;;;;7.45;6.00;;;;;;;23.37;65.10;96728.22;4982125;28;20668;-76
2021/08/16 00:47:11;;;;;;;7.15;6.20;;;;;;;23.44;64.90;96730.28;4994316;28;20404;-77
2021/08/16 00:49:36;;;;;;;7.65;6.50;;;;;;;23.41;64.84;96725.66;4977525;28;20113;-77
2021/08/16 00:52:03;;;;;;;7.85;6.82;;;;;;;23.49;64.27;96726.59;5020023;28;20036;-77
2021/08/16 00:54:28;;;;;;;7.00;6.28;;;;;;;23.43;64.55;96731.38;5013548;28;20087;-77
2021/08/16 00:56:54;;;;;;;8.70;7.65;;;;;;;23.33;65.13;96735.28;4997245;28;20037;-77
2021/08/16 00:59:21;;;;;;;8.15;6.18;;;;;;;23.35;64.78;96733.06;4996636;28;20034;-77
2021/08/16 01:01:47;;;;;;;7.85;7.05;;;;;;;23.32;64.91;96739.09;5036564;22;20036;-78
2021/08/16 01:04:13;;;;;;;7.57;6.53;;;;;;;23.41;64.58;96738.13;5002902;28;20103;-78
2021/08/16 01:06:39;;;;;;;7.88;6.50;;;;;;;23.46;64.53;96736.03;5033305;28;20453;-78
2021/08/16 01:09:05;;;;;;;7.88;7.03;;;;;;;23.46;64.72;96735.25;5000758;28;20118;-78
2021/08/16 01:11:32;;;;;;;8.38;6.93;;;;;;;23.34;64.87;96744.81;5033039;28;20087;-78
2021/08/16 01:13:57;;;;;;;7.13;5.80;;;;;;;23.40;64.88;96748.00;5049452;28;20418;-78
2021/08/16 01:16:23;;;;;;;8.77;6.63;;;;;;;23.42;64.74;96751.09;5016795;28;20116;-79
2021/08/16 01:18:49;;;;;;;8.48;6.18;;;;;;;23.43;64.81;96747.34;5033485;28;20029;-78
2021/08/16 01:21:16;;;;;;;7.00;6.00;;;;;;;23.47;64.09;96758.81;5046086;28;20211;-78
2021/08/16 01:23:42;;;;;;;8.82;6.70;;;;;;;23.47;64.64;96755.41;4980548;28;20562;-78
2021/08/16 01:26:08;;;;;;;8.45;6.80;;;;;;;23.40;64.74;96752.56;5008850;28;20537;-78
2021/08/16 01:28:33;;;;;;;7.47;6.45;;;;;;;23.44;64.45;96764.03;5030523;28;20021;-78
2021/08/16 01:31:01;;;;;;;7.78;7.07;;;;;;;23.38;64.65;96766.94;4996836;28;20025;-78
2021/08/16 01:33:27;;;;;;;7.25;6.35;;;;;;;23.50;64.31;96773.31;5012695;28;20510;-78
2021/08/16 01:35:52;;;;;;;7.22;6.15;;;;;;;23.54;64.28;96780.28;5011412;28;20033;-78
2021/08/16 01:38:22;;;;;;;9.60;6.05;;;;;;;23.55;64.34;96767.78;5013540;28;20029;-78
2021/08/16 01:40:47;;;;;;;9.73;5.70;;;;;;;23.60;64.09;96777.38;4996668;28;20030;-78
2021/08/16 01:43:13;;;;;;;7.30;6.03;;;;;;;23.63;63.13;96774.03;4980153;28;20091;-78
2021/08/16 01:45:39;;;;;;;7.47;6.00;;;;;;;23.67;63.18;96773.03;4996562;28;20072;-78
2021/08/16 01:48:05;;;;;;;7.53;5.80;;;;;;;23.69;63.01;96778.00;4997102;28;20057;-78
2021/08/16 01:50:30;;;;;;;7.13;5.80;;;;;;;23.70;63.15;96785.63;4996192;28;20474;-78
2021/08/16 01:52:55;;;;;;;8.80;5.78;;;;;;;23.72;62.93;96780.00;5002134;28;20078;-78
2021/08/16 01:55:21;;;;;;;8.35;5.35;;;;;;;23.72;62.77;96786.06;5016356;28;20064;-78
2021/08/16 01:57:47;;;;;;;6.97;5.60;;;;;;;23.70;62.75;96784.84;5032465;28;20039;-78
2021/08/16 02:00:15;;;;;;;7.43;5.25;;;;;;;23.65;62.59;96772.59;5016099;28;20067;-78
2021/08/16 02:02:41;;;;;;;7.65;5.70;;;;;;;23.75;62.01;96781.94;5015365;28;20114;-78
2021/08/16 02:05:07;;;;;;;6.75;5.55;;;;;;;23.67;62.55;96783.66;5032606;28;20063;-78
2021/08/16 02:07:32;;;;;;;7.32;5.43;;;;;;;23.66;62.24;96787.41;5016082;28;20067;-77
2021/08/16 02:09:58;;;;;;;6.38;5.05;;;;;;;23.62;61.91;96783.91;5032719;28;20044;-78
2021/08/16 02:12:23;;;;;;;5.32;4.65;;;;;;;23.65;61.32;96779.81;4997363;28;20021;-78
2021/08/16 02:14:48;;;;;;;6.60;4.82;;;;;;;23.61;61.07;96776.25;4996195;28;20044;-78
2021/08/16 02:17:14;;;;;;;5.72;4.63;;;;;;;23.51;60.29;96774.84;4996479;28;20434;-78
2021/08/16 02:19:39;;;;;;;4.65;4.03;;;;;;;23.49;59.69;96783.19;4996359;28;20457;-79
2021/08/16 02:22:07;;;;;;;5.25;4.47;;;;;;;23.50;59.37;96783.97;5034289;28;20035;-77
2021/08/16 02:24:32;;;;;;;6.43;4.50;;;;;;;23.44;58.86;96775.47;5000321;28;20036;-78
2021/08/16 02:26:57;;;;;;;7.20;4.50;;;;;;;23.47;59.05;96785.38;5028818;28;20435;-77
2021/08/16 02:29:23;;;;;;;7.72;4.45;;;;;;;23.55;58.79;96787.13;5036243;28;20585;-78
2021/08/16 02:31:48;;;;;;;6.30;4.28;;;;;;;23.56;58.81;96782.59;5052232;28;20522;-77
2021/08/16 02:34:23;;;;;;;5.20;4.07;;;;;;;23.52;58.53;96797.66;5038607;28;20040;-78
2021/08/16 02:36:48;;;;;;;5.65;3.95;;;;;;;23.50;58.04;96789.28;5032026;28;20029;-78
2021/08/16 02:39:14;;;;;;;5.15;3.95;;;;;;;23.41;58.01;96797.38;5016120;28;20057;-78
2021/08/16 02:41:39;;;;;;;6.82;4.55;;;;;;;23.29;57.18;96805.41;5031747;28;20102;-77
2021/08/16 02:44:05;;;;;;;6.43;4.30;;;;;;;23.33;57.54;96811.56;5014396;28;20476;-77
2021/08/16 02:46:32;;;;;;;5.55;3.58;;;;;;;23.30;57.28;96813.00;5030343;28;20552;-78
2021/08/16 02:49:00;;;;;;;4.40;3.50;;;;;;;23.21;56.23;96809.72;5015548;28;20112;-77
2021/08/16 02:51:26;;;;;;;3.97;3.40;;;;;;;23.01;56.26;96822.00;5031937;28;20112;-77
2021/08/16 02:53:52;;;;;;;3.78;3.20;;;;;;;23.16;56.12;96828.53;5031504;28;20040;-77
2021/08/16 02:56:20;;;;;;;5.13;3.38;;;;;;;23.03;55.47;96837.59;5032014;28;20025;-77
2021/08/16 02:58:48;;;;;;;4.90;3.20;;;;;;;22.87;54.76;96840.16;5051637;28;20031;-77
2021/08/16 03:01:13;;;;;;;5.00;2.90;;;;;;;22.94;54.46;96838.47;5054009;28;20103;-77
2021/08/16 03:03:39;;;;;;;3.70;2.50;;;;;;;22.99;53.69;96834.84;5018989;28;20037;-77
2021/08/16 03:06:04;;;;;;;4.13;2.97;;;;;;;23.01;53.88;96840.59;4979467;28;20028;-77
2021/08/16 03:08:33;;;;;;;5.53;2.85;;;;;;;22.90;54.14;96844.81;4983443;28;20045;-78
2021/08/16 03:11:01;;;;;;;5.88;3.22;;;;;;;22.93;54.45;96847.56;5028137;28;20041;-78
2021/08/16 03:13:26;;;;;;;4.30;3.38;;;;;;;22.90;55.08;96845.56;5027985;28;20036;-77
2021/08/16 03:15:52;;;;;;;4.30;3.28;;;;;;;22.76;55.23;96851.22;5011784;28;20037;-78
2021/08/16 03:18:17;;;;;;;6.47;3.28;;;;;;;22.67;56.15;96842.59;4995326;28;20044;-77
2021/08/16 03:20:42;;;;;;;3.50;2.97;;;;;;;22.68;56.38;96854.75;5011241;28;20030;-77
2021/08/16 03:23:08;;;;;;;4.28;2.90;;;;;;;22.55;56.27;96859.28;5029685;28;20041;-77
2021/08/16 03:25:38;;;;;;;3.65;2.70;;;;;;;22.39;55.78;96855.72;5014572;28;20064;-78
2021/08/16 03:28:04;;;;;;;5.15;2.83;;;;;;;22.50;55.24;96864.81;4998747;28;20026;-77
2021/08/16 03:30:30;;;;;;;2.67;2.45;;;;;;;22.35;54.42;96860.13;5067048;28;20044;-77
2021/08/16 03:32:55;;;;;;;2.60;2.22;;;;;;;22.44;54.47;96879.38;5052154;28;20044;-78
2021/08/16 03:35:20;;;;;;;5.15;2.38;;;;;;;22.30;54.18;96878.91;5021358;28;20112;-78
2021/08/16 03:37:46;;;;;;;4.50;2.45;;;;;;;22.25;53.96;96888.59;5027632;28;20025;-77
2021/08/16 03:40:12;;;;;;;5.95;2.65;;;;;;;22.18;55.18;96888.34;4979022;28;20033;-78
2021/08/16 03:42:37;;;;;;;5.55;2.40;;;;;;;22.25;53.84;96888.59;4994741;28;20026;-78
2021/08/16 03:45:16;;;;;;;4.68;3.03;;;;;;;22.00;54.45;96892.25;4994775;28;20168;-78
2021/08/16 03:47:42;;;;;;;3.90;2.33;;;;;;;22.03;54.83;96883.66;5011458;28;20116;-78
2021/08/16 03:50:08;;;;;;;3.65;2.78;;;;;;;21.99;54.38;96872.16;4978710;28;20494;-78
2021/08/16 03:52:36;;;;;;;4.13;2.75;;;;;;;22.00;54.17;96876.34;5009216;28;20033;-78
2021/08/16 03:55:02;;;;;;;4.70;2.47;;;;;;;22.02;54.37;96874.94;5030933;28;20024;-78
2021/08/16 03:57:28;;;;;;;4.07;2.80;;;;;;;22.10;54.23;96881.25;5014499;28;20033;-78
2021/08/16 03:59:53;;;;;;;4.07;2.50;;;;;;;22.07;54.61;96889.84;5001248;28;20379;-78
2021/08/16 04:02:19;;;;;;;4.40;2.63;;;;;;;21.92;54.47;96880.63;5034787;28;20075;-77
2021/08/16 04:04:44;;;;;;;3.15;2.50;;;;;;;21.92;54.05;96887.78;5035477;28;20334;-78
2021/08/16 04:07:10;;;;;;;4.43;2.47;;;;;;;21.85;54.06;96889.09;5035005;28;20037;-77
2021/08/16 04:09:36;;;;;;;4.60;2.17;;;;;;;21.80;53.71;96891.97;5035042;28;20017;-77
2021/08/16 04:12:02;;;;;;;4.47;2.38;;;;;;;21.77;53.71;96897.13;5018513;28;20383;-77
2021/08/16 04:14:27;;;;;;;4.65;2.50;;;;;;;21.67;52.83;96890.34;5019446;28;20032;-77
2021/08/16 04:16:53;;;;;;;3.67;2.28;;;;;;;21.61;52.73;96896.91;5038660;28;20036;-78
2021/08/16 04:19:18;;;;;;;3.47;2.10;;;;;;;21.47;52.68;96905.91;5038150;28;20024;-77
2021/08/16 04:21:43;;;;;;;4.45;2.03;;;;;;;21.45;52.50;96905.41;5022851;28;20099;-78
2021/08/16 04:24:09;;;;;;;3.17;2.05;;;;;;;21.32;52.07;96907.22;4998774;28;20464;-77
2021/08/16 04:26:35;;;;;;;4.43;2.15;;;;;;;21.27;52.13;96915.34;5022615;28;20037;-78
2021/08/16 04:29:00;;;;;;;4.05;2.22;;;;;;;21.18;51.22;96900.59;5007433;28;20031;-78
2021/08/16 04:31:26;;;;;;;4.50;2.30;;;;;;;21.21;51.54;96913.97;5038491;28;20131;-77
2021/08/16 04:33:51;;;;;;;4.40;1.83;;;;;;;21.11;51.67;96909.03;5021974;28;20053;-77
2021/08/16 04:36:16;;;;;;;3.25;1.88;;;;;;;20.98;51.60;96902.88;5054708;28;20081;-77
2021/08/16 04:38:42;;;;;;;3.67;1.80;;;;;;;20.89;51.95;96912.72;5038161;28;20044;-77
2021/08/16 04:41:07;;;;;;;2.42;1.80;;;;;;;20.88;51.00;96916.47;5037930;28;20036;-77
2021/08/16 04:43:33;;;;;;;3.75;2.30;;;;;;;20.81;50.55;96918.84;5037962;28;20044;-77
2021/08/16 04:45:58;;;;;;;3.33;2.30;;;;;;;20.76;50.28;96914.47;5054443;28;20031;-77
2021/08/16 04:48:23;;;;;;;4.85;1.80;;;;;;;20.80;50.44;96922.56;5037829;28;20024;-77
2021/08/16 04:50:49;;;;;;;3.47;1.67;;;;;;;20.72;50.12;96927.56;5037737;28;20036;-77
2021/08/16 04:53:14;;;;;;;5.05;1.73;;;;;;;20.74;50.26;96929.91;5014270;28;20029;-78
2021/08/16 04:55:40;;;;;;;3.55;1.70;;;;;;;20.72;50.39;96927.56;5003728;28;20146;-77
2021/08/16 04:58:05;;;;;;;3.45;1.77;;;;;;;20.69;50.35;96928.19;5053274;28;20028;-77
2021/08/16 05:00:30;;;;;;;3.97;1.70;;;;;;;20.67;50.78;96932.25;5049178;28;20411;-77
2021/08/16 05:02:56;;;;;;;2.80;1.70;;;;;;;20.65;50.97;96924.63;5020994;28;20513;-78
2021/08/16 05:05:25;;;;;;;5.72;1.98;;;;;;;20.51;50.65;96924.81;5016070;28;20029;-78
2021/08/16 05:07:52;;;;;;;5.30;2.25;;;;;;;20.45;52.43;96941.16;5013373;28;20548;-78
2021/08/16 05:10:22;;;;;;;6.18;1.70;;;;;;;20.33;50.75;96947.84;5028646;28;20061;-78
2021/08/16 05:12:48;;;;;;;3.88;1.60;;;;;;;20.37;51.52;96942.69;4994077;28;20040;-78
2021/08/16 05:15:14;;;;;;;3.75;1.58;;;;;;;20.26;50.81;96944.13;5000055;28;20472;-77
2021/08/16 05:17:39;;;;;;;4.40;1.65;;;;;;;20.22;50.42;96936.06;5016469;28;20136;-78
2021/08/16 05:20:06;;;;;;;4.78;1.70;;;;;;;20.06;50.74;96932.31;4999340;28;20116;-78
2021/08/16 05:22:32;;;;;;;3.97;1.58;;;;;;;20.06;50.70;96932.31;4995558;28;20457;-77
2021/08/16 05:24:57;;;;;;;2.70;1.25;;;;;;;20.00;50.86;96932.47;5001002;28;20096;-77
2021/08/16 05:27:22;;;;;;;3.72;1.52;;;;;;;19.93;51.37;96928.72;5016345;28;20609;-77
2021/08/16 05:29:48;;;;;;;4.65;2.00;;;;;;;20.01;51.19;96938.53;5044767;28;20031;-78
2021/08/16 05:32:15;;;;;;;5.32;1.92;;;;;;;20.01;50.64;96938.53;5035104;28;20068;-77
2021/08/16 05:34:40;;;;;;;4.32;1.55;;;;;;;20.05;50.44;96941.31;5036569;28;20037;-76
2021/08/16 05:37:06;;;;;;;5.18;2.17;;;;;;;20.07;51.02;96952.38;5038207;28;20044;-77
2021/08/16 05:39:31;;;;;;;4.13;1.70;;;;;;;20.03;50.53;96941.63;4999863;28;20502;-77
2021/08/16 05:41:56;;;;;;;6.43;1.95;;;;;;;19.95;50.59;96945.84;4999969;28;20094;-77
2021/08/16 05:44:22;;;;;;;5.15;2.35;;;;;;;19.85;50.77;96940.88;5016904;28;20056;-77
2021/08/16 05:46:47;;;;;;;6.13;2.15;;;;;;;19.90;50.84;96959.22;5017073;28;20036;-77
2021/08/16 05:49:12;;;;;;;4.65;2.17;;;;;;;19.90;51.53;96961.09;5016367;28;20033;-77
2021/08/16 05:51:38;;;;;;;6.85;2.05;;;;;;;19.95;50.63;96956.41;5012485;28;20104;-77
2021/08/16 05:54:04;;;;;;;3.30;1.40;;;;;;;19.92;52.43;96961.53;5013298;28;20120;-78
2021/08/16 05:56:30;;;;;;;6.72;1.83;;;;;;;19.92;51.87;96956.25;5013395;28;20056;-77
2021/08/16 05:58:55;;;;;;;3.20;1.73;;;;;;;19.96;53.10;96967.75;5013709;28;20033;-77
2021/08/16 06:01:21;;;;;;;6.13;1.80;;;;;;;19.80;54.47;96972.72;5002705;28;20051;-77
2021/08/16 06:03:46;;;;;;;5.68;1.88;;;;;;;19.76;54.61;96974.44;5047649;28;20590;-77
2021/08/16 06:06:11;;;;;;;7.38;2.03;;;;;;;19.72;54.65;96968.16;5005056;28;20029;-77
2021/08/16 06:08:37;;;;;;;7.28;1.95;;;;;;;19.62;54.91;96971.88;4983351;28;20034;-77
2021/08/16 06:11:03;;;;;;;5.05;1.80;;;;;;;19.67;55.13;96973.59;5017515;28;20029;-77
2021/08/16 06:13:29;;;;;;;8.93;2.83;;;;;;;19.65;55.21;96982.63;5041923;28;20045;-77
2021/08/16 06:15:54;;;;;;;4.05;1.92;;;;;;;19.64;54.53;96975.78;5052908;28;20032;-77
2021/08/16 06:18:20;;;;;;;4.80;1.73;;;;;;;19.74;54.89;96984.47;5025234;28;20569;-77
2021/08/16 06:20:45;;;;;;;5.18;1.92;;;;;;;19.86;53.17;96976.78;5009640;28;20052;-77
2021/08/16 06:23:11;;;;;;;3.30;1.63;;;;;;;20.05;51.92;96975.69;4991716;28;20518;-77
2021/08/16 06:25:36;;;;;;;5.93;1.92;;;;;;;20.24;52.19;96976.16;5012954;28;20044;-77
2021/08/16 06:28:02;;;;;;;3.88;1.73;;;;;;;20.41;51.77;96975.38;4997060;28;20033;-77
2021/08/16 06:30:28;;;;;;;4.88;1.67;;;;;;;20.57;51.33;96970.38;5012659;28;20040;-77
2021/08/16 06:32:56;;;;;;;5.85;1.80;;;;;;;20.79;51.15;96972.06;4997378;28;20113;-77
2021/08/16 06:35:21;;;;;;;3.80;1.98;;;;;;;20.91;50.44;96961.59;5003434;28;20107;-77
2021/08/16 06:37:47;;;;;;;5.45;2.22;;;;;;;21.05;50.23;96966.69;5032480;28;20064;-77
2021/08/16 06:40:16;;;;;;;3.53;1.63;;;;;;;21.01;50.30;96967.63;5016281;28;20539;-77
2021/08/16 06:42:41;;;;;;;3.47;1.75;;;;;;;21.29;50.16;96968.00;5050323;28;20479;-77
2021/08/16 06:45:12;;;;;;;2.75;1.67;;;;;;;21.51;49.51;96962.44;5109931;27;1314038;-79
2021/08/16 06:47:37;;;;;;;3.00;1.67;;;;;;;21.57;49.89;96951.66;5109406;28;20031;-79
2021/08/16 06:50:04;;;;;;;5.93;2.00;;;;;;;21.59;49.71;96962.69;5089195;28;20036;-79
2021/08/16 06:52:29;;;;;;;3.35;1.60;;;;;;;21.71;49.93;96962.78;5099272;28;20055;-79
2021/08/16 06:55:03;;;;;;;6.30;2.03;;;;;;;21.95;49.25;96958.72;5075907;27;20069;-79
2021/08/16 06:57:29;;;;;;;3.55;1.30;;;;;;;22.04;49.18;96972.72;5109089;28;20039;-79
2021/08/16 06:59:55;;;;;;;5.38;1.80;;;;;;;22.20;50.33;96962.28;5088999;28;20024;-79
2021/08/16 07:02:20;;;;;;;3.63;1.73;;;;;;;22.04;50.61;96967.41;5099950;28;20379;-79
2021/08/16 07:04:46;;;;;;;5.38;1.83;;;;;;;22.35;49.42;96967.00;5085298;28;20029;-79
2021/08/16 07:07:11;;;;;;;4.85;1.50;;;;;;;22.64;48.25;96968.00;5068830;28;20118;-79
2021/08/16 07:09:37;;;;;;;5.25;1.77;;;;;;;22.73;48.36;96978.50;5068848;28;20332;-79
2021/08/16 07:12:03;;;;;;;5.18;1.80;;;;;;;22.81;46.96;96975.00;5085141;28;20044;-79
2021/08/16 07:14:28;;;;;;;3.05;1.58;;;;;;;22.82;47.56;96976.53;5085458;28;20020;-80
2021/08/16 07:16:53;;;;;;;5.57;2.00;;;;;;;22.73;47.60;96981.16;5068565;28;20028;-79
2021/08/16 07:19:19;;;;;;;3.20;1.30;;;;;;;22.34;48.93;96975.28;5102428;28;20103;-80
2021/08/16 07:21:46;;;;;;;4.05;1.52;;;;;;;22.43;49.58;96989.22;5092178;28;20039;-79
2021/08/16 07:24:12;;;;;;;4.05;2.13;;;;;;;22.61;48.63;96985.31;5088804;28;20027;-79
2021/08/16 07:26:37;;;;;;;3.17;1.70;;;;;;;22.84;47.50;96982.28;5067808;28;20384;-79
2021/08/16 07:29:03;;;;;;;4.22;1.60;;;;;;;22.77;48.46;96974.09;5085217;28;20514;-79
2021/08/16 07:31:28;;;;;;;5.50;2.05;;;;;;;22.83;48.83;96986.06;5084806;28;20218;-79
2021/08/16 07:33:53;;;;;;;3.75;1.33;;;;;;;22.60;47.12;96981.13;5067573;28;20028;-79
2021/08/16 07:36:19;;;;;;;3.67;2.13;;;;;;;22.47;47.38;96987.50;5088529;28;20081;-79
2021/08/16 07:38:44;;;;;;;4.40;1.65;;;;;;;22.25;47.50;96989.38;5105124;28;20032;-80
2021/08/16 07:41:09;;;;;;;3.42;1.40;;;;;;;22.11;47.63;96983.56;5104785;28;20456;-79
2021/08/16 07:43:35;;;;;;;6.10;1.80;;;;;;;22.25;47.93;96994.66;5104763;28;20047;-79
2021/08/16 07:46:00;;;;;;;3.78;1.60;;;;;;;22.37;47.66;96990.56;5088194;28;20119;-79
2021/08/16 07:48:26;;;;;;;4.70;1.88;;;;;;;22.55;47.21;96988.50;5087944;28;20550;-78
2021/08/16 07:50:51;;;;;;;5.63;1.73;;;;;;;22.63;47.60;96991.06;5105931;28;20539;-79
2021/08/16 07:53:17;;;;;;;4.85;1.90;;;;;;;22.53;46.97;96996.78;5104853;28;20031;-79
2021/08/16 07:55:43;;;;;;;5.15;1.55;;;;;;;22.68;48.09;97010.56;5079472;28;20558;-79
2021/08/16 07:58:08;;;;;;;1.70;1.10;;;;;;;23.05;45.78;97005.31;5074754;28;20101;-79
2021/08/16 08:00:34;;;;;;;3.10;1.33;;;;;;;23.33;45.94;97011.59;5091112;28;20028;-79
2021/08/16 08:02:59;;;;;;;4.10;1.58;;;;;;;23.40;46.09;97007.63;5090714;28;20542;-79
2021/08/16 08:05:25;;;;;;;3.63;1.45;;;;;;;23.46;46.36;97008.94;5074650;28;20027;-79
2021/08/16 08:07:50;;;;;;;3.45;1.33;;;;;;;23.67;44.03;97006.16;5092594;28;20079;-79
2021/08/16 08:10:17;;;;;;;2.75;1.40;;;;;;;23.66;45.98;97021.31;5071720;28;20043;-79
2021/08/16 08:12:44;;;;;;;3.85;1.20;;;;;;;23.63;45.66;97016.69;5070585;28;20059;-79
2021/08/16 08:15:10;;;;;;;2.55;1.17;;;;;;;23.68;44.64;97013.03;5054306;28;20079;-79
2021/08/16 08:17:36;;;;;;;3.50;1.55;;;;;;;23.51;44.55;97029.97;5037469;28;20032;-79
2021/08/16 08:20:03;;;;;;;4.43;1.40;;;;;;;23.28;46.65;97033.06;5070548;28;20029;-79
2021/08/16 08:22:30;;;;;;;2.58;1.23;;;;;;;23.32;45.52;97033.16;5097242;28;20059;-79
2021/08/16 08:24:55;;;;;;;5.05;1.92;;;;;;;23.30;45.78;97027.41;5076237;28;20232;-79
2021/08/16 08:27:20;;;;;;;2.53;1.50;;;;;;;23.32;46.48;97036.63;5090946;28;20051;-79
2021/08/16 08:29:46;;;;;;;3.13;1.52;;;;;;;23.30;47.33;97036.16;5073589;28;20043;-79
2021/08/16 08:32:12;;;;;;;2.92;1.20;;;;;;;23.42;46.88;97038.03;5090220;28;20078;-79
2021/08/16 08:34:38;;;;;;;4.25;1.83;;;;;;;23.58;47.09;97032.06;5090312;28;20032;-79
2021/08/16 08:37:04;;;;;;;4.30;1.30;;;;;;;23.73;46.00;97037.50;5090642;28;20032;-79
2021/08/16 08:39:29;;;;;;;3.60;1.95;;;;;;;23.66;45.21;97031.97;5056720;28;20177;-80
2021/08/16 08:41:58;;;;;;;3.65;1.83;;;;;;;23.53;45.89;97033.09;5089762;28;20103;-79
2021/08/16 08:44:24;;;;;;;2.55;0.95;;;;;;;23.61;45.49;97042.03;5089753;28;20046;-80
2021/08/16 08:46:50;;;;;;;4.57;1.73;;;;;;;23.61;44.98;97050.78;5090302;28;20028;-79
2021/08/16 08:49:16;;;;;;;3.60;1.33;;;;;;;23.45;46.42;97039.28;5073314;28;20113;-79
2021/08/16 08:51:42;;;;;;;5.60;1.65;;;;;;;23.59;45.50;97034.41;5057022;28;20024;-79
2021/08/16 08:54:08;;;;;;;6.97;1.30;;;;;;;23.62;46.84;97044.38;5073355;28;20016;-79
2021/08/16 08:56:34;;;;;;;3.70;1.38;;;;;;;23.54;45.42;97046.06;5073382;28;20028;-79
2021/08/16 08:59:00;;;;;;;3.17;1.60;;;;;;;23.56;46.46;97037.72;5072991;28;20077;-79
2021/08/16 09:01:25;;;;;;;3.83;1.60;;;;;;;23.63;45.49;97031.84;5055730;28;20420;-79
2021/08/16 09:03:54;;;;;;;2.15;1.48;;;;;;;23.57;46.61;97039.28;5072758;28;20063;-79
2021/08/16 09:06:32;;;;;;;3.55;1.48;;;;;;;23.78;46.21;97043.69;5055992;28;20432;-80
2021/08/16 09:08:59;;;;;;;3.72;1.20;;;;;;;23.88;45.30;97040.63;5072553;28;20038;-79
2021/08/16 09:11:27;;;;;;;4.35;1.73;;;;;;;23.81;44.96;97040.38;5056135;28;20505;-79
2021/08/16 09:14:00;;;;;;;3.47;1.45;;;;;;;23.73;45.65;97034.06;5089664;28;20119;-79
2021/08/16 09:16:28;;;;;;;4.65;1.25;;;;;;;23.77;44.71;97036.81;5090881;28;20058;-79
2021/08/16 09:18:54;;;;;;;3.58;1.70;;;;;;;23.61;45.73;97040.16;5090666;28;20036;-80
2021/08/16 09:21:41;;;;;;;3.47;1.45;;;;;;;23.42;45.89;97047.91;5069133;28;20103;-79
2021/08/16 09:24:07;;;;;;;4.78;1.88;;;;;;;23.42;45.96;97037.28;5069393;28;20037;-79
2021/08/16 09:26:38;;;;;;;2.50;1.33;;;;;;;23.48;46.19;97028.00;5069433;28;20485;-80
2021/08/16 09:29:18;;;;;;;2.85;1.60;;;;;;;23.73;45.32;97026.09;5072557;28;20274;-79
2021/08/16 09:32:00;;;;;;;3.42;1.50;;;;;;;24.06;44.74;97019.84;5072207;28;20059;-79
2021/08/16 09:34:27;;;;;;;3.35;1.42;;;;;;;24.51;43.84;97029.47;5072715;28;20089;-80
2021/08/16 09:36:56;;;;;;;2.83;1.20;;;;;;;24.69;42.79;97016.66;5070675;28;20028;-80
2021/08/16 09:39:22;;;;;;;5.28;2.00;;;;;;;24.48;43.43;97022.94;5056051;28;20043;-79
2021/08/16 09:41:56;;;;;;;2.35;1.40;;;;;;;23.98;44.21;97024.19;5088906;28;20416;-79
2021/08/16 09:44:21;;;;;;;4.33;2.40;;;;;;;23.83;45.50;97020.34;5072080;28;20391;-80
2021/08/16 09:47:01;;;;;;;3.53;1.65;;;;;;;23.57;46.43;97018.03;5072495;28;20290;-79
2021/08/16 09:49:27;;;;;;;2.53;1.58;;;;;;;23.49;46.81;97021.56;5088519;28;20487;-80
2021/08/16 09:52:06;;;;;;;3.30;1.52;;;;;;;23.19;47.95;97027.09;5071382;28;20036;-80
2021/08/16 09:54:33;;;;;;;2.65;1.95;;;;;;;23.23;47.14;97013.91;5088829;28;20028;-80
2021/08/16 09:57:01;;;;;;;4.28;1.85;;;;;;;23.23;46.87;97027.97;5072087;28;20391;-79
2021/08/16 09:59:27;;;;;;;6.20;2.25;;;;;;;23.27;46.06;97017.44;5071955;28;20234;-79
2021/08/16 10:01:53;;;;;;;3.40;1.98;;;;;;;23.24;47.31;97018.91;5088271;28;20519;-80
2021/08/16 10:04:18;;;;;;;6.05;2.40;;;;;;;23.28;45.60;97021.66;5071963;28;20055;-79
2021/08/16 10:06:45;;;;;;;5.57;1.90;;;;;;;23.23;46.96;97020.00;5071672;28;20028;-79
2021/08/16 10:09:11;;;;;;;5.03;1.88;;;;;;;23.29;46.70;97020.56;5071650;28;20032;-79
2021/08/16 10:11:38;;;;;;;4.05;1.50;;;;;;;23.32;46.30;97023.34;5088025;28;20067;-80
2021/08/16 10:14:04;;;;;;;3.42;1.60;;;;;;;23.39;46.82;97014.81;5088695;28;20020;-79
2021/08/16 10:16:31;;;;;;;3.28;1.90;;;;;;;23.47;46.01;97023.78;5071773;28;20488;-80
2021/08/16 10:19:22;;;;;;;6.20;2.38;;;;;;;23.86;46.74;97021.56;5088290;28;20032;-79
2021/08/16 10:21:47;;;;;;;4.72;1.83;;;;;;;24.26;44.40;97021.56;5087368;28;20482;-79
2021/08/16 10:24:22;;;;;;;2.15;1.52;;;;;;;24.25;44.82;97016.59;5071495;28;20097;-80
2021/08/16 10:27:07;;;;;;;2.20;1.50;;;;;;;24.47;45.20;97021.41;5071846;28;20020;-80
2021/08/16 10:29:35;;;;;;;3.97;1.80;;;;;;;24.76;43.07;97014.22;5088113;28;20031;-79
2021/08/16 10:32:00;;;;;;;3.20;1.73;;;;;;;24.81;43.42;97021.94;5070948;28;20036;-79
2021/08/16 10:34:34;;;;;;;5.85;2.17;;;;;;;24.03;43.93;97018.66;5071861;28;20035;-79
2021/08/16 10:37:10;;;;;;;3.08;1.80;;;;;;;23.77;44.00;97026.97;5071694;28;20441;-79
2021/08/16 10:39:45;;;;;;;3.78;1.98;;;;;;;23.72;45.87;97011.25;5071469;28;20032;-80
2021/08/16 10:42:11;;;;;;;3.03;2.13;;;;;;;23.96;45.14;97012.34;5087904;28;20024;-80
2021/08/16 10:44:39;;;;;;;4.15;2.47;;;;;;;24.15;44.69;97015.19;5088154;28;20082;-80
2021/08/16 10:47:04;;;;;;;5.18;1.92;;;;;;;24.30;45.13;97009.16;5071686;28;20032;-80
2021/08/16 10:49:40;;;;;;;5.40;2.03;;;;;;;24.10;44.78;97002.88;5071254;28;20032;-79
2021/08/16 10:52:19;;;;;;;3.08;1.75;;;;;;;24.10;46.91;97000.22;5070608;28;20032;-79
2021/08/16 10:54:45;;;;;;;2.50;1.70;;;;;;;23.99;44.42;97001.03;5089567;28;20032;-79
2021/08/16 10:57:10;;;;;;;4.05;2.25;;;;;;;23.81;45.35;97001.28;5071190;28;20040;-80
2021/08/16 10:59:36;;;;;;;2.30;1.55;;;;;;;23.56;45.91;97013.78;5071318;28;20259;-79
2021/08/16 11:02:01;;;;;;;3.67;1.92;;;;;;;23.52;45.85;96999.63;5070935;28;20093;-79
2021/08/16 11:04:35;;;;;;;4.13;2.28;;;;;;;23.03;46.48;97004.88;5071613;28;20488;-79
2021/08/16 11:07:05;;;;;;;3.38;2.17;;;;;;;22.95;47.24;97009.97;5088158;28;20156;-79
2021/08/16 11:09:32;;;;;;;3.38;2.08;;;;;;;22.97;46.90;97012.28;5087648;28;20526;-80
2021/08/16 11:12:05;;;;;;;4.82;2.20;;;;;;;22.85;48.30;97009.63;5087486;28;20048;-79
2021/08/16 11:14:32;;;;;;;5.28;2.25;;;;;;;22.95;47.64;97015.28;5087975;28;20519;-79
2021/08/16 11:16:57;;;;;;;3.95;2.08;;;;;;;23.12;47.52;97003.72;5054454;28;20123;-79
2021/08/16 11:19:24;;;;;;;4.03;2.05;;;;;;;23.15;47.47;97012.91;5071307;28;20449;-80
2021/08/16 11:21:58;;;;;;;4.50;2.40;;;;;;;22.94;48.03;96999.69;5087384;28;20544;-79
2021/08/16 11:24:34;;;;;;;6.22;2.47;;;;;;;23.07;47.67;97003.16;5071076;28;20021;-79
2021/08/16 11:27:03;;;;;;;4.13;2.10;;;;;;;23.24;47.49;97016.25;5087848;28;20090;-80
2021/08/16 11:29:29;;;;;;;3.97;2.35;;;;;;;23.07;47.76;97000.50;5071337;28;20081;-79
2021/08/16 11:32:02;;;;;;;3.95;1.98;;;;;;;23.03;47.92;97013.66;5057460;28;20027;-79